Airport Information

KRNT - Renton Airport

KRNT 160753Z AUTO 00000KT 10SM CLR 02/M01 A2979 RMK AO2 SLP092 T00221006 400831011


  • General Information

  • Coordinates: N 47°29'35"/ W 122°12'56"
  • Location: N/A
  • Surveyed Elevation: 32 MSL

Operations

Flow Name Active Runways Conditions

Green background denotes normal operations.


Common Frequencies

Callsign Frequency Position Name

More at the Document Center


Charts

Name Description Cycle
RENTN THREE Page 1 1901
BELLEVUE FOUR Page 1 1901
Name Description Cycle
CHINS THREE Page 1 | Page 2 1901
EPHRATA EIGHT Page 1 1901
GLASR ONE Page 1 | Page 2 1901
OLYMPIA TWO Page 1 | Page 2 1901